Time;durP1;ratioP1;P1;durP2;ratioP2;P2;SDS_P1;SDS_P2;PMS_P1;PMS_P2;Temp;Humidity;BMP_temperature;BMP_pressure;BME280_temperature;BME280_humidity;BME280_pressure;Samples;Min_cycle;Max_cycle;Signal;HPM_P1;HPM_P2
2022/08/16 00:01:30;;;;;;;12.40;9.10;;;;;;;20.96;75.91;97101.60;105429;1281;22706;-83
2022/08/16 00:04:07;;;;;;;10.50;9.50;;;;;;;21.01;76.66;97098.89;105379;1281;26610;-82
2022/08/16 00:06:37;;;;;;;12.20;10.20;;;;;;;21.16;77.02;97098.07;105247;1281;22765;-85
2022/08/16 00:09:07;;;;;;;10.30;9.40;;;;;;;21.29;76.49;97095.89;105227;1284;23976;-82
2022/08/16 00:11:40;;;;;;;10.80;9.70;;;;;;;21.39;76.29;97089.67;105188;1284;24114;-84
2022/08/16 00:14:17;;;;;;;10.60;9.10;;;;;;;21.36;75.27;97084.33;105516;1280;24365;-84
2022/08/16 00:16:46;;;;;;;10.60;9.60;;;;;;;21.17;75.08;97084.20;105195;1284;24389;-82
2022/08/16 00:19:34;;;;;;;10.70;9.60;;;;;;;21.07;76.14;97085.99;105398;1281;22713;-81
2022/08/16 00:22:09;;;;;;;;;;;;;;;21.13;75.91;97089.69;105886;1281;25921;-82
2022/08/16 00:24:43;;;;;;;11.90;10.50;;;;;;;21.08;75.75;97091.63;106252;1281;26017;-81
2022/08/16 00:27:13;;;;;;;11.10;10.00;;;;;;;21.06;76.02;97096.39;105704;1281;25365;-80
2022/08/16 00:29:44;;;;;;;11.00;9.80;;;;;;;21.14;76.10;97088.13;105422;1281;26621;-82
2022/08/16 00:32:13;;;;;;;10.10;9.10;;;;;;;21.27;75.76;97089.56;105406;1284;22549;-82
2022/08/16 00:34:45;;;;;;;9.90;9.00;;;;;;;21.39;75.26;97088.82;105433;1281;26517;-83
2022/08/16 00:37:23;;;;;;;11.00;9.80;;;;;;;21.43;74.95;97087.73;105526;1284;22575;-83
2022/08/16 00:40:23;;;;;;;11.00;9.90;;;;;;;21.31;74.32;97090.27;105571;1281;22564;-87
2022/08/16 00:43:03;;;;;;;10.50;9.50;;;;;;;21.12;74.58;97089.14;105527;1281;23298;-84
2022/08/16 00:46:05;;;;;;;10.80;9.70;;;;;;;20.95;74.55;97091.27;106349;1280;22736;-84
2022/08/16 00:48:54;;;;;;;;;;;;;;;20.66;74.62;97086.71;106581;1283;25350;-83
2022/08/16 00:51:24;;;;;;;10.60;9.40;;;;;;;20.48;75.81;97089.50;106276;1281;23914;-82
2022/08/16 00:53:57;;;;;;;10.20;9.30;;;;;;;20.61;77.29;97089.04;105827;1281;25363;-82
2022/08/16 00:56:31;;;;;;;11.30;9.70;;;;;;;20.80;77.02;97088.97;105554;1281;24123;-82
2022/08/16 00:59:22;;;;;;;11.50;10.40;;;;;;;20.99;76.22;97096.08;105911;1281;22705;-84
2022/08/16 01:01:52;;;;;;;11.10;9.90;;;;;;;20.96;74.89;97100.98;105750;1281;22585;-82
2022/08/16 01:04:23;;;;;;;11.60;10.40;;;;;;;20.66;74.32;97104.94;105632;1281;24094;-83
2022/08/16 01:06:59;;;;;;;11.80;10.40;;;;;;;20.31;74.39;97110.20;105652;1281;24150;-83
2022/08/16 01:13:40;;;;;;;11.50;10.40;;;;;;;19.79;75.98;97111.02;105445;1281;23868;-82
2022/08/16 01:16:22;;;;;;;12.10;10.90;;;;;;;19.74;77.44;97109.79;105412;1281;23379;-85
2022/08/16 01:19:00;;;;;;;10.90;9.80;;;;;;;19.92;79.49;97110.56;105405;1281;22712;-83
2022/08/16 01:21:52;;;;;;;12.00;10.30;;;;;;;20.17;79.36;97103.63;105247;1284;22633;-83
2022/08/16 01:24:51;;;;;;;12.60;10.10;;;;;;;20.45;78.80;97106.14;105347;1281;22541;-84
2022/08/16 01:28:00;;;;;;;10.40;9.40;;;;;;;20.62;77.79;97106.48;105333;1281;25316;-83
2022/08/16 01:30:35;;;;;;;15.00;11.20;;;;;;;20.71;77.07;97110.12;104427;1290;24306;-84
2022/08/16 01:33:08;;;;;;;11.90;10.70;;;;;;;20.66;76.57;97108.22;104492;1290;25374;-83
2022/08/16 01:36:00;;;;;;;13.80;10.10;;;;;;;20.64;76.76;97102.04;104606;1290;25704;-83
2022/08/16 01:43:27;;;;;;;11.30;9.50;;;;;;;20.48;76.49;97098.65;104550;1290;25306;-82
2022/08/16 01:46:02;;;;;;;12.10;10.20;;;;;;;20.48;76.74;97097.09;104470;1290;25404;-86
2022/08/16 01:48:57;;;;;;;11.50;10.10;;;;;;;20.47;76.19;97093.33;104447;1290;25372;-87
2022/08/16 01:51:28;;;;;;;11.90;10.80;;;;;;;20.33;75.88;97095.66;104426;1290;22784;-85
2022/08/16 01:53:57;;;;;;;14.80;11.30;;;;;;;20.06;75.83;97092.14;104135;1294;22724;-85
2022/08/16 01:56:28;;;;;;;14.00;11.20;;;;;;;19.92;76.49;97097.52;104307;1291;25470;-81
2022/08/16 01:59:00;;;;;;;11.10;9.80;;;;;;;19.87;76.64;97096.70;104442;1290;25575;-81
2022/08/16 02:01:29;;;;;;;14.80;12.30;;;;;;;19.74;76.91;97098.55;104462;1290;22572;-82
2022/08/16 02:03:59;;;;;;;16.60;10.90;;;;;;;19.65;77.22;97099.48;104505;1285;22723;-81
2022/08/16 02:06:40;;;;;;;14.30;12.90;;;;;;;19.68;79.02;97097.18;105296;1281;22561;-80
2022/08/16 02:09:19;;;;;;;11.60;10.50;;;;;;;19.87;79.99;97099.91;105451;1281;25355;-80
2022/08/16 02:11:53;;;;;;;13.00;11.30;;;;;;;20.02;78.95;97099.70;105381;1281;24220;-81
2022/08/16 02:14:25;;;;;;;11.40;10.20;;;;;;;20.09;78.18;97100.69;105075;1284;25365;-81
2022/08/16 02:16:57;;;;;;;14.10;12.70;;;;;;;20.12;77.67;97101.56;105212;1281;23978;-81
2022/08/16 02:19:29;;;;;;;13.40;11.80;;;;;;;20.10;78.04;97101.23;105232;1281;23940;-82
2022/08/16 02:22:21;;;;;;;12.70;11.50;;;;;;;20.06;78.04;97098.94;105210;1281;24470;-80
2022/08/16 02:25:11;;;;;;;15.80;14.20;;;;;;;20.04;77.50;97097.59;105353;1281;22636;-82
2022/08/16 02:27:44;;;;;;;16.80;13.30;;;;;;;19.85;76.82;97105.83;105224;1282;24235;-80
2022/08/16 02:30:22;;;;;;;13.90;12.50;;;;;;;19.67;77.06;97106.52;105340;1281;23022;-80
2022/08/16 02:33:11;;;;;;;14.60;12.20;;;;;;;19.59;77.75;97109.72;105151;1281;25298;-81
2022/08/16 02:35:43;;;;;;;11.80;10.70;;;;;;;19.62;78.99;97110.67;105201;1282;25453;-81
2022/08/16 02:38:28;;;;;;;12.80;11.50;;;;;;;19.70;80.90;97111.55;105260;1281;22565;-81
2022/08/16 02:41:03;;;;;;;16.80;13.60;;;;;;;19.89;79.98;97116.63;105166;1283;22721;-81
2022/08/16 02:43:37;;;;;;;15.80;12.50;;;;;;;19.94;79.24;97120.11;105270;1281;22684;-81
2022/08/16 02:46:07;;;;;;;17.00;12.30;;;;;;;20.05;79.17;97119.33;105277;1281;22717;-82
2022/08/16 02:48:37;;;;;;;14.00;12.60;;;;;;;20.14;79.25;97119.55;105183;1282;22567;-81
2022/08/16 02:51:07;;;;;;;16.30;13.80;;;;;;;20.22;78.50;97122.41;105174;1283;25321;-81
2022/08/16 02:53:44;;;;;;;15.30;13.90;;;;;;;20.14;77.50;97124.07;105178;1282;25341;-80
2022/08/16 02:56:14;;;;;;;16.20;12.90;;;;;;;19.91;77.14;97128.43;105088;1281;22702;-81
2022/08/16 02:58:49;;;;;;;17.10;14.30;;;;;;;19.59;77.38;97123.47;105179;1281;22629;-81
2022/08/16 03:01:24;;;;;;;12.90;11.60;;;;;;;19.53;81.05;97119.73;105299;1281;22556;-81
2022/08/16 03:04:09;;;;;;;12.40;11.20;;;;;;;19.81;82.35;97118.45;105134;1281;22632;-82
2022/08/16 03:06:57;;;;;;;15.30;13.70;;;;;;;20.08;80.77;97115.27;105288;1281;22560;-82
2022/08/16 03:09:39;;;;;;;14.90;13.30;;;;;;;20.16;79.05;97116.98;105156;1281;22543;-79
2022/08/16 03:12:11;;;;;;;14.50;12.80;;;;;;;20.07;78.76;97119.27;105354;1283;22778;-81
2022/08/16 03:14:45;;;;;;;14.30;12.90;;;;;;;19.90;78.30;97115.55;105273;1281;24288;-82
2022/08/16 03:17:15;;;;;;;14.40;13.00;;;;;;;19.65;78.33;97116.02;105404;1281;22557;-81
2022/08/16 03:19:43;;;;;;;15.00;13.60;;;;;;;19.51;79.03;97113.95;105253;1282;22710;-81
2022/08/16 03:22:31;;;;;;;13.80;12.40;;;;;;;19.50;80.32;97106.98;105132;1281;25378;-81
2022/08/16 03:25:07;;;;;;;12.70;11.40;;;;;;;19.68;82.19;97108.02;105009;1285;25351;-81
2022/08/16 03:27:39;;;;;;;12.60;11.40;;;;;;;19.92;81.05;97111.89;105187;1282;23938;-80
2022/08/16 03:30:17;;;;;;;14.10;12.80;;;;;;;20.05;80.32;97114.02;105274;1281;25386;-81
2022/08/16 03:32:50;;;;;;;15.30;13.60;;;;;;;20.01;78.76;97120.08;105103;1281;25363;-80
2022/08/16 03:35:28;;;;;;;15.00;13.50;;;;;;;19.76;78.60;97122.84;105409;1281;25358;-80
2022/08/16 03:38:02;;;;;;;14.50;13.10;;;;;;;19.32;78.97;97129.59;105357;1281;25407;-81
2022/08/16 03:40:52;;;;;;;15.40;12.10;;;;;;;19.32;82.92;97126.01;105417;1281;25370;-80
2022/08/16 03:43:23;;;;;;;13.50;11.50;;;;;;;19.59;82.55;97120.50;105372;1281;22715;-81
2022/08/16 03:46:14;;;;;;;11.60;10.20;;;;;;;19.89;81.45;97121.78;105268;1281;22560;-80
2022/08/16 03:49:03;;;;;;;13.00;11.20;;;;;;;20.08;80.04;97121.14;105288;1281;25338;-81
2022/08/16 03:51:34;;;;;;;14.00;12.30;;;;;;;20.11;79.34;97123.98;105084;1281;25412;-81
2022/08/16 03:54:04;;;;;;;14.60;13.00;;;;;;;20.06;78.68;97128.71;105297;1281;25287;-81
2022/08/16 03:56:41;;;;;;;14.20;12.50;;;;;;;19.90;78.35;97134.84;105279;1281;24257;-80
2022/08/16 03:59:28;;;;;;;16.60;11.80;;;;;;;19.68;78.17;97132.63;105290;1281;22551;-80
2022/08/16 04:02:04;;;;;;;16.90;12.40;;;;;;;19.50;78.45;97141.27;105332;1281;24365;-80
2022/08/16 04:04:50;;;;;;;13.40;11.80;;;;;;;19.32;78.54;97142.55;105144;1281;25338;-81
2022/08/16 04:07:19;;;;;;;17.40;11.60;;;;;;;19.22;79.45;97140.27;105309;1281;25431;-81
2022/08/16 04:09:47;;;;;;;15.00;13.20;;;;;;;19.30;80.79;97134.19;105287;1281;25348;-81
2022/08/16 04:12:16;;;;;;;13.10;11.50;;;;;;;19.39;79.97;97136.23;105286;1281;22625;-81
2022/08/16 04:15:07;;;;;;;15.60;13.20;;;;;;;19.36;79.02;97137.44;105263;1281;25320;-81
2022/08/16 04:17:41;;;;;;;13.60;11.50;;;;;;;19.29;78.71;97140.89;105248;1282;26623;-82
2022/08/16 04:20:13;;;;;;;11.80;10.20;;;;;;;19.34;80.52;97144.92;105424;1281;23974;-81
2022/08/16 04:22:59;;;;;;;11.90;10.70;;;;;;;19.61;81.62;97150.27;105338;1281;24874;-81
2022/08/16 04:25:28;;;;;;;13.20;10.30;;;;;;;19.86;80.53;97148.71;105133;1284;25031;-81
2022/08/16 04:27:59;;;;;;;11.70;10.50;;;;;;;20.06;79.52;97151.14;105411;1281;25407;-81
2022/08/16 04:30:47;;;;;;;11.30;9.90;;;;;;;20.19;78.56;97150.60;104999;1282;24112;-82
2022/08/16 04:33:17;;;;;;;20.40;18.40;;;;;;;20.28;78.35;97152.23;105332;1281;25458;-80
2022/08/16 04:35:56;;;;;;;14.50;12.50;;;;;;;20.38;78.09;97154.26;105008;1282;23033;-81
2022/08/16 04:38:25;;;;;;;14.30;12.90;;;;;;;20.44;77.64;97149.59;105132;1281;24106;-81
2022/08/16 04:40:54;;;;;;;12.40;11.10;;;;;;;20.48;77.55;97149.08;105426;1281;22539;-81
2022/08/16 04:43:24;;;;;;;17.30;11.90;;;;;;;20.25;76.88;97147.61;105032;1281;22870;-81
2022/08/16 04:45:54;;;;;;;17.10;12.60;;;;;;;19.88;76.38;97146.85;105419;1281;22570;-80
2022/08/16 04:48:29;;;;;;;13.70;11.20;;;;;;;19.66;77.52;97144.16;105169;1283;22555;-81
2022/08/16 04:51:08;;;;;;;14.20;11.10;;;;;;;19.62;78.66;97140.88;105377;1281;23928;-80
2022/08/16 04:53:47;;;;;;;11.30;10.20;;;;;;;19.79;80.99;97139.04;105391;1281;25410;-80
2022/08/16 04:56:18;;;;;;;12.90;10.40;;;;;;;20.06;80.11;97137.22;105134;1281;22720;-80
2022/08/16 04:58:47;;;;;;;15.20;12.10;;;;;;;20.20;79.22;97140.15;105196;1281;25247;-81
2022/08/16 05:01:16;;;;;;;14.30;12.60;;;;;;;20.15;78.02;97139.95;105348;1281;24364;-81
2022/08/16 05:03:46;;;;;;;14.70;13.10;;;;;;;20.00;77.76;97142.34;105172;1281;22711;-80
2022/08/16 05:06:35;;;;;;;19.20;13.90;;;;;;;19.74;78.01;97141.73;105147;1283;24222;-81
2022/08/16 05:09:27;;;;;;;15.90;14.30;;;;;;;19.58;78.55;97146.41;105217;1281;22609;-80
2022/08/16 05:11:57;;;;;;;16.30;14.70;;;;;;;19.47;78.99;97147.40;105163;1281;22704;-81
2022/08/16 05:14:27;;;;;;;21.40;16.10;;;;;;;19.43;79.24;97148.92;105295;1281;25517;-81
2022/08/16 05:17:21;;;;;;;20.60;17.30;;;;;;;19.43;80.17;97151.71;105407;1281;24233;-81
2022/08/16 05:19:53;;;;;;;18.60;16.70;;;;;;;19.34;80.36;97152.80;105335;1281;25317;-80
2022/08/16 05:22:26;;;;;;;24.80;16.20;;;;;;;19.38;80.57;97159.23;105157;1282;24660;-85
2022/08/16 05:24:56;;;;;;;18.80;16.20;;;;;;;19.41;80.89;97156.47;105420;1281;23116;-82
2022/08/16 05:27:26;;;;;;;18.10;16.20;;;;;;;19.48;81.08;97158.78;105224;1281;25259;-79
2022/08/16 05:29:54;;;;;;;20.70;15.70;;;;;;;19.49;80.97;97163.17;105133;1281;25244;-80
2022/08/16 05:32:32;;;;;;;17.50;15.70;;;;;;;19.50;81.11;97163.26;105364;1281;22690;-81
2022/08/16 05:35:14;;;;;;;20.80;18.40;;;;;;;19.56;81.43;97174.02;105373;1281;23940;-82
2022/08/16 05:37:58;;;;;;;23.80;17.60;;;;;;;19.59;81.63;97171.08;105019;1283;26699;-80
2022/08/16 05:40:26;;;;;;;19.80;17.70;;;;;;;19.62;81.96;97170.48;105411;1281;25375;-83
2022/08/16 05:42:55;;;;;;;17.80;15.30;;;;;;;19.66;82.27;97173.20;105034;1281;25328;-82
2022/08/16 05:45:24;;;;;;;15.50;14.00;;;;;;;19.84;84.21;97177.76;105120;1281;25365;-82
2022/08/16 05:47:56;;;;;;;17.00;14.30;;;;;;;20.17;83.52;97181.07;105444;1281;22621;-82
2022/08/16 05:50:51;;;;;;;23.00;20.20;;;;;;;20.47;82.91;97186.83;105065;1283;24623;-82
2022/08/16 05:53:20;;;;;;;25.60;22.60;;;;;;;20.54;81.95;97184.64;105096;1281;23983;-81
2022/08/16 05:56:09;;;;;;;24.90;22.30;;;;;;;20.54;82.36;97189.96;105407;1281;25437;-81
2022/08/16 05:58:46;;;;;;;22.10;20.10;;;;;;;20.53;82.06;97192.84;105102;1283;25476;-81
2022/08/16 06:01:15;;;;;;;21.70;19.60;;;;;;;20.51;82.17;97196.56;105417;1281;22544;-81
2022/08/16 06:03:46;;;;;;;21.40;19.20;;;;;;;20.43;82.40;97196.90;105396;1281;24292;-81
2022/08/16 06:06:19;;;;;;;22.90;19.50;;;;;;;20.40;82.50;97199.53;105306;1281;25357;-81
2022/08/16 06:08:56;;;;;;;21.50;18.40;;;;;;;20.38;82.89;97199.76;105338;1281;22550;-82
2022/08/16 06:11:24;;;;;;;26.90;19.70;;;;;;;20.41;83.23;97202.59;105316;1281;26568;-81
2022/08/16 06:13:59;;;;;;;25.20;19.60;;;;;;;20.48;83.45;97201.62;105323;1281;25452;-82
2022/08/16 06:16:34;;;;;;;23.50;19.90;;;;;;;20.53;83.43;97202.91;105409;1281;24773;-82
2022/08/16 06:19:03;;;;;;;23.70;21.30;;;;;;;20.55;83.62;97198.79;105242;1281;22578;-82
2022/08/16 06:21:33;;;;;;;22.50;20.30;;;;;;;20.60;83.96;97199.38;105325;1282;25434;-81
2022/08/16 06:24:04;;;;;;;24.00;20.30;;;;;;;20.69;84.51;97197.00;105491;1281;23408;-84
2022/08/16 06:26:52;;;;;;;20.70;18.60;;;;;;;20.88;84.13;97196.95;105310;1281;25386;-81
2022/08/16 06:29:25;;;;;;;22.40;19.90;;;;;;;20.96;84.30;97196.90;105376;1281;25482;-80
2022/08/16 06:31:53;;;;;;;22.00;19.60;;;;;;;20.99;84.56;97194.34;105222;1281;22717;-81
2022/08/16 06:34:25;;;;;;;23.30;21.00;;;;;;;21.07;84.44;97193.83;105229;1281;26841;-81
2022/08/16 06:37:13;;;;;;;21.80;19.70;;;;;;;21.22;84.44;97194.36;105391;1281;24595;-81
2022/08/16 06:39:43;;;;;;;22.90;20.60;;;;;;;21.42;84.61;97199.08;105473;1281;22636;-83
2022/08/16 06:42:37;;;;;;;23.90;20.40;;;;;;;21.56;84.45;97196.91;105502;1281;25521;-80
2022/08/16 06:45:44;;;;;;;22.40;20.10;;;;;;;21.64;84.17;97194.89;105209;1281;22885;-80
2022/08/16 06:48:21;;;;;;;18.50;16.70;;;;;;;21.72;83.90;97196.88;105344;1281;25018;-81
2022/08/16 06:51:04;;;;;;;19.60;16.40;;;;;;;21.82;83.39;97197.13;105453;1281;22574;-81
2022/08/16 06:53:35;;;;;;;18.50;16.60;;;;;;;21.86;83.34;97195.95;105187;1282;22557;-81
2022/08/16 06:56:06;;;;;;;18.10;16.40;;;;;;;21.99;82.85;97206.00;105124;1285;22626;-81
2022/08/16 06:59:06;;;;;;;18.80;17.00;;;;;;;22.10;82.70;97210.63;105411;1281;26536;-82
2022/08/16 07:01:43;;;;;;;19.00;16.60;;;;;;;22.21;81.07;97207.13;105096;1281;22544;-82
2022/08/16 07:04:22;;;;;;;20.20;16.50;;;;;;;22.29;81.44;97212.55;105206;1281;25342;-81
2022/08/16 07:07:04;;;;;;;22.10;16.70;;;;;;;22.37;81.15;97213.70;105346;1281;24273;-81
2022/08/16 07:09:37;;;;;;;18.70;16.80;;;;;;;22.48;80.73;97216.45;105846;1281;25433;-82
2022/08/16 07:12:05;;;;;;;16.70;15.10;;;;;;;22.58;80.24;97217.06;105822;1281;22721;-82
2022/08/16 07:14:36;;;;;;;16.60;14.90;;;;;;;22.69;79.95;97223.00;106072;1280;23957;-81
2022/08/16 07:17:06;;;;;;;15.30;13.40;;;;;;;22.79;80.27;97221.73;105422;1281;24202;-82
2022/08/16 07:19:39;;;;;;;16.20;13.60;;;;;;;22.95;79.77;97223.98;105485;1281;25407;-81
2022/08/16 07:22:33;;;;;;;13.70;12.00;;;;;;;23.09;79.99;97225.45;105877;1281;22700;-82
2022/08/16 07:25:14;;;;;;;14.00;11.80;;;;;;;23.20;78.84;97225.65;105499;1281;22701;-82
2022/08/16 07:27:43;;;;;;;14.50;11.60;;;;;;;23.29;78.34;97230.23;105553;1281;22784;-82
2022/08/16 07:30:17;;;;;;;13.50;11.10;;;;;;;23.32;77.39;97229.84;105848;1281;25281;-82
2022/08/16 07:33:08;;;;;;;13.30;11.40;;;;;;;23.36;77.22;97225.98;105679;1281;24228;-83
2022/08/16 07:35:37;;;;;;;11.70;10.50;;;;;;;23.41;76.14;97220.36;105469;1281;22550;-82
2022/08/16 07:38:16;;;;;;;16.20;11.60;;;;;;;23.39;76.35;97213.00;105421;1282;22704;-83
2022/08/16 07:41:01;;;;;;;12.90;11.60;;;;;;;23.44;75.38;97215.02;105467;1281;22892;-83
2022/08/16 07:43:41;;;;;;;13.40;11.10;;;;;;;23.48;74.78;97216.88;105718;1281;22665;-83
2022/08/16 07:46:10;;;;;;;12.40;11.20;;;;;;;23.56;73.50;97218.17;105705;1281;24279;-84
2022/08/16 07:49:00;;;;;;;12.80;11.00;;;;;;;23.53;73.35;97215.52;105621;1281;25461;-83
2022/08/16 07:51:35;;;;;;;11.20;10.00;;;;;;;23.55;73.67;97212.98;105681;1281;22712;-83
2022/08/16 07:54:08;;;;;;;12.30;10.90;;;;;;;23.61;72.51;97210.92;105434;1281;23005;-83
2022/08/16 07:56:43;;;;;;;13.10;10.80;;;;;;;23.68;71.85;97213.48;105459;1282;22565;-85
2022/08/16 07:59:11;;;;;;;12.30;11.00;;;;;;;23.71;72.05;97214.27;105711;1283;25202;-85
2022/08/16 08:01:41;;;;;;;13.10;10.70;;;;;;;23.77;72.24;97215.56;105991;1281;22553;-85
2022/08/16 08:04:11;;;;;;;11.10;9.90;;;;;;;23.89;71.89;97220.13;105366;1281;22550;-84
2022/08/16 08:06:43;;;;;;;16.70;9.90;;;;;;;24.02;69.98;97223.73;105804;1281;22563;-83
2022/08/16 08:09:17;;;;;;;13.70;10.20;;;;;;;24.01;69.38;97227.52;105601;1281;22610;-84
2022/08/16 08:11:46;;;;;;;12.10;10.00;;;;;;;24.08;69.77;97225.58;105447;1281;25471;-83
2022/08/16 08:14:31;;;;;;;11.30;10.10;;;;;;;24.15;69.14;97227.33;105780;1281;25247;-84
2022/08/16 08:17:00;;;;;;;11.60;10.40;;;;;;;24.15;68.29;97227.25;105748;1281;22691;-85
2022/08/16 08:19:33;;;;;;;11.40;9.90;;;;;;;24.15;68.95;97224.98;105840;1281;22586;-85
2022/08/16 08:22:05;;;;;;;11.60;10.50;;;;;;;24.20;68.66;97230.14;105947;1280;23924;-86
2022/08/16 08:24:41;;;;;;;14.10;9.90;;;;;;;24.25;68.86;97227.33;105723;1281;22737;-86
2022/08/16 08:27:13;;;;;;;11.70;10.60;;;;;;;24.34;68.11;97232.05;105887;1281;22703;-86
2022/08/16 08:29:52;;;;;;;10.30;9.30;;;;;;;24.39;68.03;97230.84;105740;1281;25366;-87
2022/08/16 08:32:42;;;;;;;14.30;10.30;;;;;;;24.46;67.69;97236.33;105761;1280;24694;-85
2022/08/16 08:35:28;;;;;;;12.20;10.70;;;;;;;24.52;68.35;97237.52;105402;1281;24371;-87
2022/08/16 08:37:58;;;;;;;11.30;10.20;;;;;;;24.54;67.80;97239.57;105575;1280;26638;-86
2022/08/16 08:40:29;;;;;;;11.30;10.10;;;;;;;24.56;67.74;97238.98;105996;1281;26540;-85
2022/08/16 08:42:59;;;;;;;11.30;9.90;;;;;;;24.62;67.99;97233.75;106036;1280;22718;-84
2022/08/16 08:45:54;;;;;;;12.60;11.30;;;;;;;24.72;67.63;97239.47;106063;1281;22799;-83
2022/08/16 08:48:24;;;;;;;12.10;10.70;;;;;;;24.81;67.08;97241.73;106120;1281;22648;-84
2022/08/16 08:51:11;;;;;;;11.60;10.50;;;;;;;24.85;67.47;97238.77;105514;1281;23942;-83
2022/08/16 08:53:52;;;;;;;11.40;9.70;;;;;;;24.86;67.20;97236.33;105842;1281;22557;-84
2022/08/16 08:56:29;;;;;;;12.30;10.40;;;;;;;24.84;67.12;97239.34;105535;1282;22581;-83
2022/08/16 08:59:08;;;;;;;13.30;10.60;;;;;;;24.81;67.04;97238.65;105961;1281;22566;-83
2022/08/16 09:01:42;;;;;;;11.50;10.30;;;;;;;24.76;67.28;97243.75;105715;1281;25382;-84
2022/08/16 09:04:27;;;;;;;13.00;11.10;;;;;;;24.75;67.59;97241.32;105967;1281;22579;-84
2022/08/16 09:06:56;;;;;;;12.80;10.00;;;;;;;24.78;67.50;97246.58;106011;1281;25353;-84
2022/08/16 09:09:30;;;;;;;11.40;10.10;;;;;;;24.80;67.55;97249.38;105886;1281;25477;-84
2022/08/16 09:12:03;;;;;;;12.90;10.80;;;;;;;24.84;67.38;97246.20;105570;1281;23947;-83
2022/08/16 09:14:57;;;;;;;13.40;10.80;;;;;;;24.91;67.49;97245.89;105703;1281;24428;-84
2022/08/16 09:17:28;;;;;;;11.20;10.00;;;;;;;24.95;67.35;97245.15;105725;1281;22562;-84
2022/08/16 09:20:17;;;;;;;11.90;10.50;;;;;;;24.95;67.42;97245.61;105518;1282;22578;-84
2022/08/16 09:22:48;;;;;;;11.40;10.10;;;;;;;25.02;67.71;97245.70;105694;1281;22557;-83
2022/08/16 09:25:18;;;;;;;12.70;11.20;;;;;;;25.13;67.05;97251.34;105552;1281;25288;-85
2022/08/16 09:28:01;;;;;;;12.20;10.70;;;;;;;25.19;66.39;97250.67;105802;1281;25407;-81
2022/08/16 09:30:41;;;;;;;13.80;10.60;;;;;;;25.27;66.72;97253.16;105817;1281;22557;-83
2022/08/16 09:33:17;;;;;;;12.90;11.00;;;;;;;25.38;66.42;97252.73;105780;1281;24096;-82
2022/08/16 09:35:48;;;;;;;12.70;10.70;;;;;;;25.47;66.53;97253.55;105780;1281;22732;-83
2022/08/16 09:38:23;;;;;;;14.50;10.80;;;;;;;25.63;65.97;97256.98;105771;1281;24379;-83
2022/08/16 09:41:05;;;;;;;11.20;9.90;;;;;;;25.78;65.89;97258.13;105841;1281;25249;-84
2022/08/16 09:43:42;;;;;;;12.80;10.50;;;;;;;25.93;65.58;97255.10;105803;1281;24311;-83
2022/08/16 09:46:26;;;;;;;17.00;11.00;;;;;;;26.07;65.69;97244.80;105772;1281;24325;-84
2022/08/16 09:49:14;;;;;;;15.60;11.00;;;;;;;26.22;64.44;97240.70;105801;1281;26205;-83
2022/08/16 09:51:42;;;;;;;11.50;9.70;;;;;;;26.35;64.58;97235.52;104736;1281;1536836;-83
2022/08/16 09:54:11;;;;;;;11.50;10.20;;;;;;;26.53;63.84;97229.80;105796;1281;24099;-84
2022/08/16 09:56:49;;;;;;;10.80;9.70;;;;;;;26.67;64.28;97232.09;105738;1281;24441;-80
2022/08/16 09:59:22;;;;;;;12.40;10.10;;;;;;;26.89;63.75;97240.92;105779;1281;25479;-84
2022/08/16 10:01:52;;;;;;;13.90;10.20;;;;;;;27.09;62.72;97249.95;105747;1281;23965;-84
2022/08/16 10:04:24;;;;;;;11.90;10.00;;;;;;;27.26;62.65;97253.38;105511;1281;22560;-84
2022/08/16 10:07:04;;;;;;;12.60;9.90;;;;;;;27.47;62.73;97257.29;105799;1281;23308;-85
2022/08/16 10:09:43;;;;;;;11.70;9.90;;;;;;;27.73;60.90;97256.05;105798;1281;22557;-84
2022/08/16 10:15:23;;;;;;;11.60;9.10;;;;;;;27.96;59.29;97250.91;105717;1281;24410;-83
2022/08/16 10:17:53;;;;;;;11.00;9.70;;;;;;;28.15;59.71;97251.34;105864;1281;24139;-86
2022/08/16 10:20:32;;;;;;;11.20;9.50;;;;;;;28.23;58.50;97256.77;105511;1282;23085;-84
2022/08/16 10:23:05;;;;;;;9.50;8.30;;;;;;;28.39;59.27;97262.49;105284;1282;24429;-84
2022/08/16 10:25:38;;;;;;;14.10;9.50;;;;;;;28.59;57.00;97263.91;105495;1283;23947;-85
2022/08/16 10:28:27;;;;;;;17.70;9.30;;;;;;;28.71;56.45;97268.53;105758;1281;22727;-85
2022/08/16 10:31:00;;;;;;;13.40;8.50;;;;;;;28.90;56.97;97265.16;105771;1281;24270;-83
2022/08/16 10:33:32;;;;;;;14.50;9.70;;;;;;;29.19;57.75;97262.15;105807;1281;22645;-85
2022/08/16 10:36:05;;;;;;;8.70;7.80;;;;;;;29.46;54.78;97271.04;105794;1281;24307;-85
2022/08/16 10:38:37;;;;;;;11.10;8.10;;;;;;;29.56;54.33;97269.11;105862;1281;24461;-84
2022/08/16 10:41:06;;;;;;;8.50;7.30;;;;;;;29.73;54.06;97267.22;105700;1282;22743;-84
2022/08/16 10:43:38;;;;;;;10.10;8.40;;;;;;;29.89;51.80;97259.69;105708;1281;23555;-85
2022/08/16 10:46:13;;;;;;;11.10;8.30;;;;;;;29.95;53.12;97255.21;105626;1281;23734;-84
2022/08/16 10:49:01;;;;;;;14.90;7.90;;;;;;;30.26;53.72;97249.98;105793;1281;25428;-84
2022/08/16 10:51:32;;;;;;;9.00;6.80;;;;;;;30.48;49.20;97252.05;105767;1281;22666;-84
2022/08/16 10:54:21;;;;;;;14.40;8.50;;;;;;;30.46;50.54;97246.86;105785;1280;22708;-84
2022/08/16 10:56:59;;;;;;;15.00;9.20;;;;;;;30.55;51.96;97242.34;105708;1281;24157;-85
2022/08/16 10:59:30;;;;;;;18.00;8.80;;;;;;;30.54;52.20;97241.91;105814;1281;23745;-84
2022/08/16 11:02:14;;;;;;;11.60;8.00;;;;;;;30.47;52.62;97251.27;105635;1281;25456;-85
2022/08/16 11:05:03;;;;;;;11.00;7.30;;;;;;;30.46;51.88;97252.98;105775;1281;24101;-85
2022/08/16 11:07:33;;;;;;;11.60;7.80;;;;;;;30.58;52.13;97250.54;105788;1281;24299;-88
2022/08/16 11:10:16;;;;;;;8.90;6.40;;;;;;;30.75;50.71;97249.40;105776;1281;23676;-83
2022/08/16 11:13:06;;;;;;;14.90;6.40;;;;;;;30.72;50.12;97249.90;105569;1281;24217;-84
2022/08/16 11:15:59;;;;;;;11.00;6.30;;;;;;;30.81;50.51;97252.56;105762;1281;24256;-86
2022/08/16 11:18:28;;;;;;;8.40;5.90;;;;;;;30.95;48.43;97247.71;105471;1281;25491;-84
2022/08/16 11:21:16;;;;;;;10.00;5.40;;;;;;;30.79;48.46;97248.18;105696;1281;25399;-84
2022/08/16 11:23:56;;;;;;;7.70;5.20;;;;;;;30.39;47.67;97248.52;105595;1281;25312;-85
2022/08/16 11:26:27;;;;;;;7.50;5.80;;;;;;;29.96;48.04;97249.14;105521;1281;24293;-86
2022/08/16 11:28:56;;;;;;;9.40;6.40;;;;;;;29.62;48.03;97251.27;105622;1281;26521;-85
2022/08/16 11:31:42;;;;;;;7.30;5.90;;;;;;;29.27;48.09;97251.54;105658;1281;25328;-85
2022/08/16 11:34:21;;;;;;;9.00;5.90;;;;;;;28.98;48.31;97246.91;105715;1281;22613;-84
2022/08/16 11:36:51;;;;;;;8.80;6.20;;;;;;;28.71;48.22;97246.34;105479;1283;23745;-85
2022/08/16 11:39:29;;;;;;;7.00;5.30;;;;;;;28.54;48.11;97250.52;105458;1281;25476;-85
2022/08/16 11:41:58;;;;;;;6.40;5.40;;;;;;;28.29;48.12;97250.69;105745;1281;22868;-84
2022/08/16 11:44:26;;;;;;;8.60;5.50;;;;;;;28.01;48.25;97249.05;105772;1281;25458;-84
2022/08/16 11:47:14;;;;;;;7.80;5.90;;;;;;;27.87;48.50;97239.88;105877;1281;24265;-89
2022/08/16 11:49:42;;;;;;;7.40;5.60;;;;;;;27.76;48.55;97235.19;105829;1281;22711;-89
2022/08/16 11:52:10;;;;;;;8.00;5.70;;;;;;;27.61;48.90;97231.70;105964;1281;25328;-88
2022/08/16 11:54:39;;;;;;;8.50;5.60;;;;;;;27.52;49.05;97226.98;105838;1281;22699;-90
2022/08/16 11:57:07;;;;;;;7.90;6.40;;;;;;;27.45;49.53;97225.71;105913;1281;25549;-90
2022/08/16 11:59:37;;;;;;;7.50;6.10;;;;;;;27.47;50.06;97221.02;105666;1282;23971;-89
2022/08/16 12:02:08;;;;;;;9.00;6.60;;;;;;;27.57;50.11;97219.84;105880;1281;22560;-89
2022/08/16 12:04:56;;;;;;;10.30;6.80;;;;;;;27.57;50.66;97226.73;105821;1281;22555;-89
2022/08/16 12:07:24;;;;;;;8.20;6.50;;;;;;;27.53;51.09;97230.23;105651;1281;22685;-90